createdAt,value
2023-03-15T00:03:00.284Z,5.37
2023-03-15T00:08:04.375Z,5.46
2023-03-15T00:13:06.070Z,5.18
2023-03-15T00:18:07.511Z,5.02
2023-03-15T00:23:09.547Z,5.08
2023-03-15T00:28:11.530Z,5.03
2023-03-15T00:33:14.317Z,5.28
2023-03-15T00:38:15.746Z,5.15
2023-03-15T00:43:17.910Z,4.66
2023-03-15T00:48:19.392Z,4.68
2023-03-15T00:53:22.560Z,4.57
2023-03-15T00:58:26.438Z,4.71
2023-03-15T01:03:29.057Z,4.74
2023-03-15T01:08:31.338Z,5.02
2023-03-15T01:13:33.433Z,5.22
2023-03-15T01:18:34.981Z,4.75
2023-03-15T01:23:36.594Z,5.00
2023-03-15T01:28:38.369Z,4.89
2023-03-15T01:33:39.873Z,4.91
2023-03-15T01:38:41.770Z,4.63
2023-03-15T01:43:52.140Z,4.67
2023-03-15T01:49:05.457Z,4.78
2023-03-15T01:54:13.327Z,4.70
2023-03-15T01:59:25.685Z,4.85
2023-03-15T02:04:36.431Z,4.76
2023-03-15T02:09:49.606Z,4.73
2023-03-15T02:14:52.099Z,4.79
2023-03-15T02:20:27.820Z,4.59
2023-03-15T02:25:42.430Z,4.67
2023-03-15T02:30:45.941Z,4.70
2023-03-15T02:35:47.494Z,4.58
2023-03-15T02:40:51.438Z,4.61
2023-03-15T02:45:53.081Z,4.57
2023-03-15T02:50:54.595Z,4.49
2023-03-15T02:55:56.632Z,4.47
2023-03-15T03:00:58.082Z,4.32
2023-03-15T03:06:02.202Z,4.48
2023-03-15T03:11:03.878Z,4.45
2023-03-15T03:16:05.733Z,4.44
2023-03-15T03:21:08.364Z,4.29
2023-03-15T03:26:18.872Z,4.36
2023-03-15T03:31:23.254Z,4.65
2023-03-15T03:36:25.055Z,4.46
2023-03-15T03:41:26.562Z,4.59
2023-03-15T03:46:28.529Z,4.47
2023-03-15T03:51:30.748Z,4.38
2023-03-15T03:56:32.210Z,4.39
2023-03-15T04:01:33.719Z,4.34
2023-03-15T04:06:35.471Z,4.36
2023-03-15T04:11:36.900Z,4.27
2023-03-15T04:16:38.842Z,4.39
2023-03-15T04:21:47.062Z,4.29
2023-03-15T04:26:48.523Z,4.28
2023-03-15T04:31:49.943Z,4.14
2023-03-15T04:36:54.679Z,4.18
2023-03-15T04:41:56.212Z,4.14
2023-03-15T04:46:58.314Z,4.03
2023-03-15T04:51:59.793Z,4.10
2023-03-15T04:57:02.639Z,3.90
2023-03-15T05:02:04.245Z,3.92
2023-03-15T05:07:05.711Z,3.96
2023-03-15T05:12:07.631Z,3.76
2023-03-15T05:17:09.060Z,3.50
2023-03-15T05:22:10.510Z,3.59
2023-03-15T05:27:13.569Z,3.68
2023-03-15T05:32:15.075Z,3.58
2023-03-15T05:37:16.479Z,3.60
2023-03-15T05:42:22.142Z,3.75
2023-03-15T05:47:23.737Z,3.67
2023-03-15T05:52:26.368Z,3.66
2023-03-15T05:57:27.814Z,3.67
2023-03-15T06:02:29.214Z,3.45
2023-03-15T06:07:30.664Z,3.66
2023-03-15T06:12:32.099Z,3.98
2023-03-15T06:17:33.660Z,4.09
2023-03-15T06:22:35.159Z,3.61
2023-03-15T06:27:37.733Z,4.27
2023-03-15T06:32:39.224Z,4.32
2023-03-15T06:37:41.897Z,4.48
2023-03-15T06:42:43.320Z,4.39
2023-03-15T06:47:44.767Z,4.48
2023-03-15T06:52:46.246Z,4.75
2023-03-15T06:57:47.702Z,4.91
2023-03-15T07:02:49.314Z,4.93
2023-03-15T07:07:50.781Z,4.80
2023-03-15T07:12:52.216Z,4.67
2023-03-15T07:17:53.705Z,4.75
2023-03-15T07:22:55.165Z,4.96
2023-03-15T07:27:56.636Z,5.07
2023-03-15T07:32:58.176Z,5.30
2023-03-15T07:37:59.888Z,4.99
2023-03-15T07:43:01.346Z,5.34
2023-03-15T07:48:03.050Z,5.54
2023-03-15T07:53:05.513Z,5.52
2023-03-15T07:58:07.023Z,5.73
2023-03-15T08:03:08.621Z,5.84
2023-03-15T08:08:10.117Z,5.64
2023-03-15T08:13:12.304Z,5.84
2023-03-15T08:18:14.610Z,5.94
2023-03-15T08:23:16.731Z,6.31
2023-03-15T08:28:18.288Z,5.58
2023-03-15T08:33:19.760Z,6.05
2023-03-15T08:38:21.189Z,6.05
2023-03-15T08:43:22.775Z,6.30
2023-03-15T08:48:24.263Z,6.13
2023-03-15T08:53:25.706Z,6.12
2023-03-15T08:58:27.579Z,6.11
2023-03-15T09:03:29.019Z,5.82
2023-03-15T09:08:33.249Z,5.89
2023-03-15T09:13:34.768Z,6.46
2023-03-15T09:18:36.256Z,6.54
2023-03-15T09:23:37.712Z,6.69
2023-03-15T09:28:39.149Z,6.82
2023-03-15T09:33:40.766Z,6.97
2023-03-15T09:38:43.797Z,6.89
2023-03-15T09:44:09.242Z,6.90
2023-03-15T09:49:49.329Z,7.08
2023-03-15T09:54:54.275Z,6.57
2023-03-15T09:59:57.826Z,7.36
2023-03-15T10:05:23.180Z,7.49
2023-03-15T10:10:31.454Z,7.73
2023-03-15T10:15:47.388Z,7.26
2023-03-15T10:20:57.536Z,7.29
2023-03-15T10:25:59.746Z,7.33
2023-03-15T10:31:09.584Z,7.47
2023-03-15T10:36:18.238Z,6.96
2023-03-15T10:41:37.405Z,7.70
2023-03-15T10:46:38.936Z,7.14
2023-03-15T10:51:46.354Z,7.33
2023-03-15T10:56:51.945Z,7.71
2023-03-15T11:02:08.074Z,8.07
2023-03-15T11:07:10.649Z,8.00
2023-03-15T11:12:28.336Z,7.87
2023-03-15T11:17:35.873Z,7.91
2023-03-15T11:22:37.280Z,7.48
2023-03-15T11:27:38.792Z,7.04
2023-03-15T11:32:41.856Z,7.32
2023-03-15T11:38:13.014Z,7.99
2023-03-15T11:43:25.149Z,7.61
2023-03-15T11:48:55.837Z,7.80
2023-03-15T11:54:07.720Z,7.75
2023-03-15T11:59:13.779Z,7.96
2023-03-15T12:04:35.481Z,7.78
2023-03-15T12:09:36.836Z,7.61
2023-03-15T12:14:38.525Z,8.03
2023-03-15T12:19:40.585Z,8.12
2023-03-15T12:24:46.775Z,8.23
2023-03-15T12:29:58.448Z,7.82
2023-03-15T12:35:17.659Z,7.65
2023-03-15T12:40:20.227Z,7.68
2023-03-15T12:45:36.983Z,8.00
2023-03-15T12:50:44.932Z,8.03
2023-03-15T12:55:47.531Z,8.50
2023-03-15T13:00:53.039Z,8.38
2023-03-15T13:06:22.198Z,8.08
2023-03-15T13:11:35.862Z,7.91
2023-03-15T13:16:46.267Z,7.75
2023-03-15T13:22:12.391Z,7.98
2023-03-15T13:27:47.567Z,8.50
2023-03-15T13:32:49.065Z,8.29
2023-03-15T13:37:50.683Z,8.30
2023-03-15T13:42:52.173Z,8.18
2023-03-15T13:47:53.603Z,8.25
2023-03-15T13:52:56.425Z,8.17
2023-03-15T13:58:00.117Z,8.05
2023-03-15T14:03:07.290Z,7.84
2023-03-15T14:08:22.027Z,7.92
2023-03-15T14:13:29.534Z,7.82
2023-03-15T14:18:34.918Z,7.46
2023-03-15T14:23:41.491Z,7.42
2023-03-15T14:28:48.317Z,7.46
2023-03-15T14:33:56.891Z,7.53
2023-03-15T14:38:59.708Z,7.53
2023-03-15T14:44:02.993Z,8.08
2023-03-15T14:49:04.542Z,8.10
2023-03-15T14:54:06.587Z,8.02
2023-03-15T14:59:13.905Z,8.21
2023-03-15T15:04:16.972Z,8.37
2023-03-15T15:09:22.755Z,8.26
2023-03-15T15:14:24.253Z,8.38
2023-03-15T15:19:26.052Z,8.46
2023-03-15T15:24:27.607Z,8.15
2023-03-15T15:29:29.552Z,7.38
2023-03-15T15:34:34.073Z,7.44
2023-03-15T15:39:35.521Z,7.46
2023-03-15T15:44:36.926Z,7.53
2023-03-15T15:49:40.384Z,7.28
2023-03-15T15:54:43.244Z,7.23
2023-03-15T15:59:44.784Z,6.95
2023-03-15T16:04:46.242Z,6.79
2023-03-15T16:09:49.741Z,6.93
2023-03-15T16:14:51.575Z,6.71
2023-03-15T16:19:54.238Z,6.63
2023-03-15T16:24:57.974Z,6.41
2023-03-15T16:29:59.459Z,6.52
2023-03-15T16:35:01.420Z,6.47
2023-03-15T16:40:09.886Z,6.46
2023-03-15T16:45:13.479Z,6.47
2023-03-15T16:50:15.582Z,6.23
2023-03-15T16:55:22.181Z,6.01
2023-03-15T17:00:24.608Z,6.05
2023-03-15T17:05:26.687Z,5.84
2023-03-15T17:10:31.034Z,5.84
2023-03-15T17:15:32.527Z,5.86
2023-03-15T17:20:34.160Z,5.85
2023-03-15T17:25:35.649Z,5.74
2023-03-15T17:30:37.659Z,5.74
2023-03-15T17:35:50.641Z,5.73
2023-03-15T17:40:53.464Z,5.68
2023-03-15T17:45:54.948Z,5.56
2023-03-15T17:50:56.404Z,5.71
2023-03-15T17:55:57.842Z,5.44
2023-03-15T18:00:59.544Z,5.15
2023-03-15T18:06:05.150Z,5.20
2023-03-15T18:11:42.640Z,5.02
2023-03-15T18:16:45.289Z,5.14
2023-03-15T18:21:46.785Z,5.13
2023-03-15T18:26:48.209Z,5.23
2023-03-15T18:31:49.704Z,4.67
2023-03-15T18:36:51.524Z,4.82
2023-03-15T18:41:52.961Z,4.89
2023-03-15T18:46:54.445Z,4.92
2023-03-15T18:51:56.609Z,4.84
2023-03-15T18:56:58.067Z,5.04
2023-03-15T19:01:59.750Z,4.91
2023-03-15T19:07:01.223Z,4.89
2023-03-15T19:12:03.132Z,4.92
2023-03-15T19:17:04.733Z,4.76
2023-03-15T19:22:06.330Z,4.67
2023-03-15T19:27:07.793Z,4.71
2023-03-15T19:32:09.289Z,4.41
2023-03-15T19:37:10.722Z,4.51
2023-03-15T19:42:12.161Z,4.60
2023-03-15T19:47:13.576Z,4.47
2023-03-15T19:52:16.026Z,4.48
2023-03-15T19:57:17.629Z,4.49
2023-03-15T20:02:19.219Z,4.53
2023-03-15T20:07:20.647Z,4.52
2023-03-15T20:12:22.134Z,4.48
2023-03-15T20:17:23.681Z,4.43
2023-03-15T20:22:25.112Z,4.38
2023-03-15T20:27:26.691Z,4.27
2023-03-15T20:32:28.555Z,4.22
2023-03-15T20:37:30.935Z,4.18
2023-03-15T20:42:32.374Z,4.13
2023-03-15T20:47:34.319Z,4.06
2023-03-15T20:52:35.768Z,4.06
2023-03-15T20:57:37.387Z,4.02
2023-03-15T21:02:40.343Z,3.95
2023-03-15T21:07:42.590Z,3.97
2023-03-15T21:12:44.344Z,3.88
2023-03-15T21:17:49.083Z,3.87
2023-03-15T21:22:51.400Z,3.69
2023-03-15T21:27:52.820Z,3.62
2023-03-15T21:32:54.293Z,3.53
2023-03-15T21:37:55.781Z,3.54
2023-03-15T21:42:57.191Z,3.38
2023-03-15T21:47:58.621Z,3.40
2023-03-15T21:53:00.095Z,3.29
2023-03-15T21:58:02.199Z,3.27
2023-03-15T22:03:04.780Z,3.27
2023-03-15T22:08:06.496Z,2.99
2023-03-15T22:13:07.989Z,3.04
2023-03-15T22:18:09.478Z,3.12
2023-03-15T22:23:11.210Z,3.22
2023-03-15T22:28:12.951Z,3.34
2023-03-15T22:33:15.544Z,3.29
2023-03-15T22:38:16.982Z,3.08
2023-03-15T22:43:18.447Z,3.10
2023-03-15T22:48:19.890Z,3.22
2023-03-15T22:53:21.321Z,3.14
2023-03-15T22:58:23.233Z,3.14
2023-03-15T23:03:26.254Z,3.07
2023-03-15T23:08:27.850Z,3.00
2023-03-15T23:13:29.384Z,2.91
2023-03-15T23:18:34.350Z,2.83
2023-03-15T23:23:36.270Z,2.86
2023-03-15T23:28:37.686Z,2.84
2023-03-15T23:33:39.095Z,2.80
2023-03-15T23:38:40.883Z,2.67
2023-03-15T23:43:42.341Z,2.61
2023-03-15T23:48:43.778Z,2.46
2023-03-15T23:53:45.301Z,2.36
2023-03-15T23:58:46.747Z,2.45
